Time;durP1;ratioP1;P1;durP2;ratioP2;P2;SDS_P1;SDS_P2;PMS_P1;PMS_P2;Temp;Humidity;BMP_temperature;BMP_pressure;BME280_temperature;BME280_humidity;BME280_pressure;Samples;Min_cycle;Max_cycle;Signal;HPM_P1;HPM_P2
2021/11/10 00:00:44;;;;;;;11.03;4.70;;;;;;;;;;6231478;23;20211;-93
2021/11/10 00:03:50;;;;;;;11.73;5.23;;;;;;;;;;6212832;23;20214;-92
2021/11/10 00:06:58;;;;;;;11.43;5.30;;;;;;;;;;6213788;23;20168;-92
2021/11/10 00:10:03;;;;;;;15.07;5.13;;;;;;;;;;6212796;23;20170;-89
2021/11/10 00:13:18;;;;;;;16.53;5.43;;;;;;;;;;6213368;23;20655;-92
2021/11/10 00:16:26;;;;;;;13.57;4.97;;;;;;;;;;6214144;23;20179;-90
2021/11/10 00:19:31;;;;;;;12.87;5.33;;;;;;;;;;6213692;23;20199;-90
2021/11/10 00:22:36;;;;;;;11.80;5.10;;;;;;;;;;6214784;23;20307;-91
2021/11/10 00:25:41;;;;;;;10.80;4.57;;;;;;;;;;6213676;23;20207;-89
2021/11/10 00:28:47;;;;;;;11.17;5.00;;;;;;;;;;6211735;23;20174;-90
2021/11/10 00:31:54;;;;;;;11.73;4.90;;;;;;;;;;6211327;23;20193;-91
2021/11/10 00:38:51;;;;;;;11.77;5.23;;;;;;;;;;6212897;23;20194;-90
2021/11/10 00:41:56;;;;;;;8.83;4.83;;;;;;;;;;6211957;23;20214;-92
2021/11/10 00:45:01;;;;;;;10.80;5.10;;;;;;;;;;6211800;23;20158;-89
2021/11/10 00:48:10;;;;;;;11.23;4.60;;;;;;;;;;6212000;23;20155;-91
2021/11/10 00:51:15;;;;;;;11.73;4.87;;;;;;;;;;6212398;23;20175;-91
2021/11/10 00:54:20;;;;;;;12.93;5.00;;;;;;;;;;6214688;23;20162;-88
2021/11/10 00:57:26;;;;;;;11.07;4.33;;;;;;;;;;6212293;23;20501;-91
2021/11/10 01:00:32;;;;;;;8.60;4.57;;;;;;;;;;6214913;23;20179;-91
2021/11/10 01:03:39;;;;;;;12.13;4.53;;;;;;;;;;6215302;23;20171;-89
2021/11/10 01:06:44;;;;;;;11.03;4.80;;;;;;;;;;6214289;23;20167;-91
2021/11/10 01:09:54;;;;;;;9.87;4.43;;;;;;;;;;6213288;23;20167;-92
2021/11/10 01:13:01;;;;;;;10.47;4.63;;;;;;;;;;6213770;23;20158;-92
2021/11/10 01:16:07;;;;;;;12.57;4.70;;;;;;;;;;6212653;23;20167;-90
2021/11/10 01:19:14;;;;;;;9.27;4.53;;;;;;;;;;6212654;23;20183;-91
2021/11/10 01:22:20;;;;;;;12.40;4.67;;;;;;;;;;6213679;23;20269;-91
2021/11/10 01:25:26;;;;;;;10.97;4.93;;;;;;;;;;6213323;23;20171;-91
2021/11/10 01:28:32;;;;;;;10.97;4.60;;;;;;;;;;6214019;23;20154;-91
2021/11/10 01:31:38;;;;;;;14.80;4.63;;;;;;;;;;6213358;23;20195;-91
2021/11/10 01:34:45;;;;;;;11.80;4.90;;;;;;;;;;6213863;23;20187;-91
2021/11/10 01:37:54;;;;;;;12.00;5.73;;;;;;;;;;6213808;23;20170;-91
2021/11/10 01:41:01;;;;;;;12.67;4.90;;;;;;;;;;6213488;23;20618;-92
2021/11/10 01:44:15;;;;;;;13.73;5.63;;;;;;;;;;6213085;23;20210;-92
2021/11/10 01:47:21;;;;;;;13.60;4.63;;;;;;;;;;6212807;23;20214;-91
2021/11/10 01:50:33;;;;;;;18.73;4.83;;;;;;;;;;6214016;23;20183;-91
2021/11/10 01:53:39;;;;;;;13.70;5.23;;;;;;;;;;6212081;23;20172;-91
2021/11/10 01:56:45;;;;;;;10.80;4.97;;;;;;;;;;6211654;23;20162;-92
2021/11/10 02:00:03;;;;;;;17.10;6.23;;;;;;;;;;6213463;23;20183;-91
2021/11/10 02:03:14;;;;;;;12.03;5.10;;;;;;;;;;6232593;23;20174;-91
2021/11/10 02:06:27;;;;;;;11.50;5.10;;;;;;;;;;6232983;23;20236;-91
2021/11/10 02:09:33;;;;;;;8.90;4.73;;;;;;;;;;6232388;23;20206;-90
2021/11/10 02:12:41;;;;;;;13.53;5.00;;;;;;;;;;6213310;23;20237;-90
2021/11/10 02:15:48;;;;;;;11.73;5.13;;;;;;;;;;6215298;23;20179;-90
2021/11/10 02:18:54;;;;;;;11.53;5.10;;;;;;;;;;6212416;23;20271;-92
2021/11/10 02:22:05;;;;;;;11.53;5.30;;;;;;;;;;6212285;23;20190;-90
2021/11/10 02:25:11;;;;;;;12.60;4.90;;;;;;;;;;6212109;23;20163;-89
2021/11/10 02:28:16;;;;;;;14.20;5.30;;;;;;;;;;6213445;23;20278;-91
2021/11/10 02:31:22;;;;;;;17.23;5.40;;;;;;;;;;6212807;23;20214;-91
2021/11/10 02:34:37;;;;;;;9.43;4.83;;;;;;;;;;6213504;23;20203;-92
2021/11/10 02:37:44;;;;;;;12.50;5.33;;;;;;;;;;6212842;23;20230;-91
2021/11/10 02:40:52;;;;;;;10.10;5.03;;;;;;;;;;6212088;23;20256;-92
2021/11/10 02:43:57;;;;;;;13.83;5.33;;;;;;;;;;6211488;23;20246;-92
2021/11/10 02:47:03;;;;;;;10.30;5.07;;;;;;;;;;6213307;23;20203;-93
2021/11/10 02:50:09;;;;;;;13.80;5.10;;;;;;;;;;6213326;23;20186;-91
2021/11/10 02:53:16;;;;;;;10.67;4.80;;;;;;;;;;6212540;23;20229;-93
2021/11/10 02:56:22;;;;;;;12.73;5.77;;;;;;;;;;6213281;23;20634;-92
2021/11/10 02:59:27;;;;;;;12.00;5.40;;;;;;;;;;6209294;23;20238;-91
2021/11/10 03:02:34;;;;;;;12.80;5.17;;;;;;;;;;6209270;23;20626;-92
2021/11/10 03:05:47;;;;;;;9.43;4.83;;;;;;;;;;6207365;23;20243;-92
2021/11/10 03:08:55;;;;;;;10.33;4.83;;;;;;;;;;6209891;23;20191;-92
2021/11/10 03:12:01;;;;;;;11.07;4.73;;;;;;;;;;6208213;23;20182;-92
2021/11/10 03:15:10;;;;;;;11.10;4.93;;;;;;;;;;6208195;23;20170;-91
2021/11/10 03:18:15;;;;;;;11.60;4.87;;;;;;;;;;6212011;23;20191;-92
2021/11/10 03:21:20;;;;;;;11.53;5.43;;;;;;;;;;6207774;23;20163;-91
2021/11/10 03:24:28;;;;;;;11.77;5.03;;;;;;;;;;6208360;23;20170;-89
2021/11/10 03:27:33;;;;;;;12.50;4.90;;;;;;;;;;6208438;23;20260;-92
2021/11/10 03:30:43;;;;;;;11.13;5.20;;;;;;;;;;6207276;23;20167;-89
2021/11/10 03:33:54;;;;;;;9.53;5.23;;;;;;;;;;6207390;23;20159;-90
2021/11/10 03:37:04;;;;;;;13.77;5.23;;;;;;;;;;6207344;23;20167;-91
2021/11/10 03:40:17;;;;;;;10.83;4.70;;;;;;;;;;6205582;23;20194;-90
2021/11/10 03:43:27;;;;;;;10.77;5.07;;;;;;;;;;6206832;23;20245;-90
2021/11/10 03:46:38;;;;;;;13.57;5.57;;;;;;;;;;6212228;23;20179;-92
2021/11/10 03:49:47;;;;;;;14.10;5.70;;;;;;;;;;6207686;23;20163;-93
2021/11/10 03:52:55;;;;;;;12.43;6.00;;;;;;;;;;6208413;23;20166;-91
2021/11/10 03:56:02;;;;;;;13.70;5.77;;;;;;;;;;6207476;23;20243;-92
2021/11/10 03:59:10;;;;;;;11.50;5.73;;;;;;;;;;6206734;23;20183;-91
2021/11/10 04:02:16;;;;;;;12.53;5.77;;;;;;;;;;6208443;23;20215;-91
2021/11/10 04:05:21;;;;;;;14.70;6.10;;;;;;;;;;6209835;23;20179;-90
2021/11/10 04:08:29;;;;;;;14.30;6.10;;;;;;;;;;6209485;23;20171;-92
2021/11/10 04:11:37;;;;;;;15.63;7.03;;;;;;;;;;6208713;23;20167;-91
2021/11/10 04:14:49;;;;;;;13.37;6.40;;;;;;;;;;6208395;23;20178;-90
2021/11/10 04:17:55;;;;;;;12.23;6.23;;;;;;;;;;6207684;23;20250;-90
2021/11/10 04:21:01;;;;;;;15.83;6.33;;;;;;;;;;6208487;23;20206;-91
2021/11/10 04:24:08;;;;;;;16.23;6.17;;;;;;;;;;6207925;23;20167;-90
2021/11/10 04:27:18;;;;;;;13.53;6.00;;;;;;;;;;6209499;23;20179;-92
2021/11/10 04:30:26;;;;;;;21.60;6.90;;;;;;;;;;6210508;23;20167;-89
2021/11/10 04:37:05;;;;;;;24.47;6.67;;;;;;;;;;6209402;23;20221;-90
2021/11/10 04:40:12;;;;;;;15.73;5.97;;;;;;;;;;6209365;23;20190;-90
2021/11/10 04:43:22;;;;;;;14.17;5.80;;;;;;;;;;6210033;23;20171;-90
2021/11/10 04:46:34;;;;;;;14.30;5.93;;;;;;;;;;6209821;23;20166;-89
2021/11/10 04:49:39;;;;;;;20.20;6.97;;;;;;;;;;6210339;23;20174;-90
2021/11/10 04:52:46;;;;;;;17.50;6.83;;;;;;;;;;6211225;23;20175;-91
2021/11/10 04:55:51;;;;;;;14.17;6.43;;;;;;;;;;6211588;23;20286;-89
2021/11/10 04:59:00;;;;;;;18.60;6.43;;;;;;;;;;6211453;23;20679;-90
2021/11/10 05:05:26;;;;;;;18.03;6.50;;;;;;;;;;6212422;23;20158;-91
2021/11/10 05:08:32;;;;;;;15.10;7.07;;;;;;;;;;6212436;23;20186;-92
2021/11/10 05:11:37;;;;;;;17.70;7.37;;;;;;;;;;6212305;23;20259;-93
2021/11/10 05:14:46;;;;;;;17.60;6.93;;;;;;;;;;6210157;23;20171;-92
2021/11/10 05:17:52;;;;;;;15.90;6.80;;;;;;;;;;6210337;23;20282;-92
2021/11/10 05:21:01;;;;;;;15.20;6.90;;;;;;;;;;6209497;23;20310;-92
2021/11/10 05:24:08;;;;;;;14.23;6.13;;;;;;;;;;6212572;23;20214;-90
2021/11/10 05:27:14;;;;;;;12.60;6.10;;;;;;;;;;6212234;23;20171;-91
2021/11/10 05:30:21;;;;;;;13.50;6.23;;;;;;;;;;6214377;23;20219;-91
2021/11/10 05:33:29;;;;;;;14.20;5.93;;;;;;;;;;6230268;23;20171;-90
2021/11/10 05:36:54;;;;;;;18.50;7.53;;;;;;;;;;6210451;23;20163;-90
2021/11/10 05:40:00;;;;;;;17.70;7.27;;;;;;;;;;6211617;23;20311;-90
2021/11/10 05:43:11;;;;;;;18.67;6.87;;;;;;;;;;6211233;23;20242;-89
2021/11/10 05:46:21;;;;;;;17.73;8.10;;;;;;;;;;6210293;23;20178;-90
2021/11/10 05:49:28;;;;;;;16.77;6.57;;;;;;;;;;6210844;23;20171;-91
2021/11/10 05:55:58;;;;;;;16.67;6.73;;;;;;;;;;6214019;23;20179;-91
2021/11/10 05:59:03;;;;;;;15.13;6.37;;;;;;;;;;6214870;23;20263;-89
2021/11/10 06:02:10;;;;;;;16.93;6.67;;;;;;;;;;6210955;23;20211;-91
2021/11/10 06:05:17;;;;;;;13.20;6.30;;;;;;;;;;6213991;23;20488;-91
2021/11/10 06:08:22;;;;;;;12.47;6.20;;;;;;;;;;6211808;23;20179;-89
2021/11/10 06:11:28;;;;;;;14.07;6.10;;;;;;;;;;6212052;23;20288;-91
2021/11/10 06:14:34;;;;;;;13.70;5.97;;;;;;;;;;6213252;23;20168;-91
2021/11/10 06:17:43;;;;;;;16.27;7.20;;;;;;;;;;6215272;23;20226;-93
2021/11/10 06:20:50;;;;;;;20.33;6.83;;;;;;;;;;6214953;23;20211;-89
2021/11/10 06:23:55;;;;;;;14.77;6.87;;;;;;;;;;6214374;23;20195;-90
2021/11/10 06:27:03;;;;;;;24.40;6.33;;;;;;;;;;6218181;23;20666;-90
2021/11/10 06:30:09;;;;;;;14.07;6.60;;;;;;;;;;6215169;23;20167;-89
2021/11/10 06:33:18;;;;;;;17.17;6.80;;;;;;;;;;6214754;23;20151;-91
2021/11/10 06:36:27;;;;;;;17.10;6.60;;;;;;;;;;6214723;23;20239;-90
2021/11/10 06:39:36;;;;;;;18.93;8.43;;;;;;;;;;6212236;23;20219;-89
2021/11/10 06:42:42;;;;;;;22.73;7.80;;;;;;;;;;6213947;23;20220;-92
2021/11/10 06:45:48;;;;;;;15.47;8.03;;;;;;;;;;6214873;23;20247;-90
2021/11/10 06:48:54;;;;;;;19.07;7.87;;;;;;;;;;6213930;23;20214;-91
2021/11/10 06:52:09;;;;;;;19.23;8.73;;;;;;;;;;6216302;23;20171;-91
2021/11/10 06:55:18;;;;;;;20.03;7.20;;;;;;;;;;6213927;23;20228;-90
2021/11/10 06:58:27;;;;;;;17.83;6.77;;;;;;;;;;6210642;23;20242;-89
2021/11/10 23:04:25;;;;;;;27.13;10.73;;;;;;;;;;6122905;23;20170;-89
2021/11/10 23:07:31;;;;;;;27.57;9.97;;;;;;;;;;6140327;23;20161;-89
2021/11/10 23:10:37;;;;;;;25.10;10.27;;;;;;;;;;6141813;23;20201;-89
2021/11/10 23:13:42;;;;;;;24.30;10.17;;;;;;;;;;6123989;23;20233;-91
2021/11/10 23:16:48;;;;;;;22.23;9.83;;;;;;;;;;6122315;23;20217;-92
2021/11/10 23:19:55;;;;;;;24.80;10.03;;;;;;;;;;6140701;23;20148;-89
2021/11/10 23:23:02;;;;;;;23.10;10.17;;;;;;;;;;6097727;23;20208;-89
2021/11/10 23:26:07;;;;;;;23.63;10.30;;;;;;;;;;6122723;23;20157;-89
2021/11/10 23:29:15;;;;;;;24.57;10.13;;;;;;;;;;6125404;23;20181;-90
2021/11/10 23:32:30;;;;;;;23.20;10.20;;;;;;;;;;6126775;23;20503;-90
2021/11/10 23:35:44;;;;;;;22.37;9.20;;;;;;;;;;6126697;23;20169;-91
2021/11/10 23:38:57;;;;;;;23.93;9.40;;;;;;;;;;6143550;23;20173;-91
2021/11/10 23:42:02;;;;;;;19.93;9.40;;;;;;;;;;6142098;23;20628;-90
2021/11/10 23:45:09;;;;;;;20.27;9.43;;;;;;;;;;6124589;23;20186;-91
2021/11/10 23:48:14;;;;;;;25.53;9.40;;;;;;;;;;6123072;23;20605;-88
2021/11/10 23:51:22;;;;;;;20.67;9.40;;;;;;;;;;6124116;23;20172;-89
2021/11/10 23:54:30;;;;;;;20.93;9.30;;;;;;;;;;6140198;23;20246;-89
2021/11/10 23:57:36;;;;;;;24.90;9.63;;;;;;;;;;6125698;23;20193;-90
